Time;durP1;ratioP1;P1;durP2;ratioP2;P2;SDS_P1;SDS_P2;PMS_P1;PMS_P2;Temp;Humidity;BMP_temperature;BMP_pressure;BME280_temperature;BME280_humidity;BME280_pressure;Samples;Min_cycle;Max_cycle;Signal;HPM_P1;HPM_P2
2023/04/22 00:00:01;;;;;;;9.60;4.63;;;;;;;6.87;100.00;100044.59;690483;28;1042;-63
2023/04/22 00:00:25;;;;;;;9.80;4.75;;;;;;;6.87;100.00;100042.88;688551;28;1596;-64
2023/04/22 00:00:46;;;;;;;7.80;4.57;;;;;;;6.89;100.00;100043.75;689255;28;1011;-63
2023/04/22 00:01:07;;;;;;;7.18;4.45;;;;;;;6.92;100.00;100042.88;690172;28;4331;-63
2023/04/22 00:01:27;;;;;;;7.80;4.50;;;;;;;6.93;100.00;100034.22;688880;28;1521;-62
2023/04/22 00:01:48;;;;;;;9.20;4.68;;;;;;;6.92;100.00;100042.88;690390;28;1075;-63
2023/04/22 00:02:13;;;;;;;8.93;4.20;;;;;;;6.92;100.00;100048.06;689364;28;1095;-63
2023/04/22 00:02:36;;;;;;;8.10;4.38;;;;;;;6.93;100.00;100044.63;685253;28;1689;-63
2023/04/22 00:02:58;;;;;;;8.18;4.60;;;;;;;6.94;100.00;100042.00;687474;28;1405;-62
2023/04/22 00:03:21;;;;;;;8.93;4.30;;;;;;;6.94;100.00;100041.16;687126;28;1756;-62
2023/04/22 00:03:43;;;;;;;8.38;4.60;;;;;;;6.95;100.00;100041.16;687575;28;834;-63
2023/04/22 00:04:06;;;;;;;7.65;4.20;;;;;;;6.95;100.00;100035.97;690096;28;4327;-64
2023/04/22 00:04:28;;;;;;;6.68;4.00;;;;;;;6.93;100.00;100034.22;689580;28;1043;-63
2023/04/22 00:04:49;;;;;;;6.97;4.43;;;;;;;7.00;100.00;100038.53;691746;28;988;-63
2023/04/22 00:05:12;;;;;;;7.75;4.63;;;;;;;6.98;100.00;100038.56;691832;28;908;-63
2023/04/22 00:05:33;;;;;;;7.18;4.25;;;;;;;6.98;100.00;100032.50;691151;28;1061;-63
2023/04/22 00:05:54;;;;;;;7.00;4.30;;;;;;;6.98;100.00;100032.50;688567;28;2088;-63
2023/04/22 00:06:18;;;;;;;8.10;4.00;;;;;;;6.98;100.00;100027.31;689394;28;1821;-63
2023/04/22 00:06:41;;;;;;;7.43;4.00;;;;;;;7.00;100.00;100035.94;688984;28;801;-62
2023/04/22 00:07:03;;;;;;;6.63;4.10;;;;;;;6.96;100.00;100035.09;687312;28;4431;-63
2023/04/22 00:07:23;;;;;;;7.85;4.25;;;;;;;6.95;100.00;100030.75;687212;28;1751;-63
2023/04/22 00:07:45;;;;;;;7.20;4.32;;;;;;;6.93;100.00;100035.06;686802;28;1385;-62
2023/04/22 00:08:05;;;;;;;7.35;4.10;;;;;;;6.95;100.00;100028.16;686826;28;809;-62
2023/04/22 00:08:27;;;;;;;7.38;4.10;;;;;;;6.93;100.00;100029.03;686749;28;1021;-63
2023/04/22 00:08:47;;;;;;;7.35;4.18;;;;;;;6.90;100.00;100032.47;688471;28;1124;-62
2023/04/22 00:09:09;;;;;;;6.57;4.40;;;;;;;6.92;100.00;100035.09;687457;28;861;-63
2023/04/22 00:09:31;;;;;;;7.32;4.30;;;;;;;6.91;100.00;100028.16;687782;28;1752;-63
2023/04/22 00:09:52;;;;;;;7.60;4.57;;;;;;;6.92;100.00;100030.78;689852;28;4396;-63
2023/04/22 00:10:12;;;;;;;6.60;4.23;;;;;;;6.92;100.00;100033.38;690048;28;1173;-64
2023/04/22 00:10:33;;;;;;;6.40;4.00;;;;;;;6.91;100.00;100026.44;689567;28;1646;-63
2023/04/22 00:10:53;;;;;;;6.35;3.90;;;;;;;6.90;100.00;100031.63;689795;28;999;-63
2023/04/22 00:11:14;;;;;;;6.93;4.03;;;;;;;6.91;100.00;100029.03;689807;28;844;-63
2023/04/22 00:11:34;;;;;;;7.85;4.43;;;;;;;6.92;100.00;100027.28;689212;28;847;-62
2023/04/22 00:11:55;;;;;;;10.67;5.10;;;;;;;6.95;100.00;100035.06;687064;28;1201;-63
2023/04/22 00:12:15;;;;;;;9.77;4.80;;;;;;;6.94;100.00;100030.75;687439;28;1176;-63
2023/04/22 00:12:36;;;;;;;8.30;4.80;;;;;;;6.96;100.00;100029.91;684335;28;912;-63
2023/04/22 00:12:57;;;;;;;8.30;4.87;;;;;;;7.02;100.00;100029.03;684096;28;4401;-63
2023/04/22 00:13:17;;;;;;;8.18;4.60;;;;;;;7.03;100.00;100035.94;683450;28;1769;-63
2023/04/22 00:13:37;;;;;;;8.47;4.50;;;;;;;7.01;100.00;100026.44;684846;28;747;-63
2023/04/22 00:13:58;;;;;;;7.68;4.45;;;;;;;6.99;100.00;100034.22;687336;28;1318;-62
2023/04/22 00:14:18;;;;;;;8.97;4.50;;;;;;;6.97;100.00;100030.75;684937;28;1684;-62
2023/04/22 00:14:39;;;;;;;10.02;4.55;;;;;;;6.96;100.00;100024.72;688222;28;787;-63
2023/04/22 00:15:00;;;;;;;10.60;4.70;;;;;;;6.94;100.00;100030.75;688372;28;967;-63
2023/04/22 00:15:21;;;;;;;10.15;4.50;;;;;;;6.94;100.00;100026.41;686817;28;1689;-63
2023/04/22 00:15:41;;;;;;;9.45;4.68;;;;;;;6.95;100.00;100027.28;685516;28;1102;-63
2023/04/22 00:16:03;;;;;;;8.55;4.57;;;;;;;6.93;100.00;100029.88;685047;28;5563;-63
2023/04/22 00:16:25;;;;;;;9.23;4.82;;;;;;;6.91;100.00;100025.53;687183;28;1484;-63
2023/04/22 00:16:45;;;;;;;8.60;4.57;;;;;;;6.92;100.00;100027.28;688699;28;897;-63
2023/04/22 00:17:05;;;;;;;8.55;4.90;;;;;;;6.92;100.00;100027.28;688766;28;1361;-62
2023/04/22 00:17:26;;;;;;;9.97;5.40;;;;;;;6.89;100.00;100032.50;687036;28;1548;-63
2023/04/22 00:17:47;;;;;;;9.85;5.43;;;;;;;6.87;100.00;100026.41;687958;28;1036;-62
2023/04/22 00:18:12;;;;;;;8.32;4.90;;;;;;;6.88;100.00;100029.03;688691;28;885;-63
2023/04/22 00:18:34;;;;;;;8.05;4.80;;;;;;;6.88;100.00;100029.03;683932;28;2050;-63
2023/04/22 00:18:55;;;;;;;8.57;4.90;;;;;;;6.87;100.00;100039.41;684406;28;4426;-63
2023/04/22 00:19:15;;;;;;;8.83;4.90;;;;;;;6.86;100.00;100027.31;682557;28;956;-63
2023/04/22 00:19:36;;;;;;;9.10;5.23;;;;;;;6.85;100.00;100034.22;678343;28;1434;-63
2023/04/22 00:19:56;;;;;;;9.65;5.10;;;;;;;6.81;100.00;100024.69;681677;28;798;-63
2023/04/22 00:20:20;;;;;;;9.10;5.07;;;;;;;6.82;100.00;100031.63;682075;28;1528;-63
2023/04/22 00:20:42;;;;;;;8.82;4.95;;;;;;;6.82;100.00;100032.47;685144;28;770;-63
2023/04/22 00:21:03;;;;;;;8.55;4.93;;;;;;;6.82;100.00;100026.41;684848;28;1059;-63
2023/04/22 00:21:24;;;;;;;8.77;5.00;;;;;;;6.82;100.00;100029.88;687565;28;1480;-63
2023/04/22 00:21:44;;;;;;;8.43;5.10;;;;;;;6.84;100.00;100026.41;688541;28;802;-63
2023/04/22 00:22:05;;;;;;;9.65;5.32;;;;;;;6.85;100.00;100038.56;687847;28;4350;-63
2023/04/22 00:22:28;;;;;;;8.60;5.03;;;;;;;6.86;100.00;100022.09;688484;28;1547;-63
2023/04/22 00:22:49;;;;;;;7.85;4.50;;;;;;;6.88;100.00;100030.75;690294;28;1046;-63
2023/04/22 00:23:10;;;;;;;7.82;4.60;;;;;;;6.88;100.00;100025.56;688921;28;1319;-64
2023/04/22 00:23:30;;;;;;;7.57;4.68;;;;;;;6.89;100.00;100017.75;688037;28;1740;-63
2023/04/22 00:23:51;;;;;;;8.10;4.80;;;;;;;6.90;100.00;100021.25;685608;28;1224;-63
2023/04/22 00:24:11;;;;;;;7.53;4.65;;;;;;;6.89;100.00;100022.94;685276;28;837;-64
2023/04/22 00:24:32;;;;;;;7.33;4.80;;;;;;;6.88;100.00;100029.03;684790;28;1548;-63
2023/04/22 00:24:52;;;;;;;7.93;4.70;;;;;;;6.88;100.00;100026.44;684549;28;4803;-63
2023/04/22 00:25:12;;;;;;;7.50;4.67;;;;;;;6.87;100.00;100023.81;685014;28;1323;-63
2023/04/22 00:25:33;;;;;;;7.35;4.30;;;;;;;6.87;100.00;100026.41;685054;28;1476;-63
2023/04/22 00:25:53;;;;;;;7.83;4.23;;;;;;;6.87;100.00;100031.59;688486;28;1920;-63
2023/04/22 00:26:14;;;;;;;6.75;4.25;;;;;;;6.85;100.00;100025.56;688038;28;1034;-63
2023/04/22 00:26:35;;;;;;;7.13;4.32;;;;;;;6.83;100.00;100028.16;687993;28;1294;-63
2023/04/22 00:26:55;;;;;;;7.90;4.27;;;;;;;6.84;100.00;100026.41;686155;28;1208;-63
2023/04/22 00:27:16;;;;;;;8.25;4.80;;;;;;;6.85;100.00;100036.81;688794;28;873;-63
2023/04/22 00:27:37;;;;;;;7.40;4.45;;;;;;;6.84;100.00;100027.31;688225;28;842;-62
2023/04/22 00:27:57;;;;;;;6.87;4.20;;;;;;;6.86;100.00;100027.31;687909;28;4364;-63
2023/04/22 00:28:18;;;;;;;7.40;5.40;;;;;;;6.86;100.00;100024.69;688144;28;1766;-64
2023/04/22 00:28:38;;;;;;;7.00;4.60;;;;;;;6.86;100.00;100024.69;688275;28;1386;-63
2023/04/22 00:28:59;;;;;;;6.40;4.20;;;;;;;6.85;100.00;100033.34;687814;28;881;-63
2023/04/22 00:29:19;;;;;;;6.43;4.23;;;;;;;6.83;100.00;100028.16;685237;28;1521;-63
2023/04/22 00:29:39;;;;;;;5.97;4.07;;;;;;;6.82;100.00;100027.28;685753;28;1146;-63
2023/04/22 00:30:02;;;;;;;6.00;3.83;;;;;;;6.82;100.00;100031.63;684938;28;1228;-62
2023/04/22 00:30:22;;;;;;;5.80;3.97;;;;;;;6.82;100.00;100032.47;684686;28;1385;-63
2023/04/22 00:30:43;;;;;;;5.77;3.90;;;;;;;6.82;100.00;100031.63;686358;28;925;-62
2023/04/22 00:31:03;;;;;;;6.43;3.87;;;;;;;6.79;100.00;100026.44;686190;28;4846;-63
2023/04/22 00:31:24;;;;;;;6.70;4.10;;;;;;;6.78;100.00;100030.78;689665;28;1447;-62
2023/04/22 00:31:44;;;;;;;6.17;4.20;;;;;;;6.78;100.00;100033.38;687329;28;1227;-63
2023/04/22 00:32:08;;;;;;;6.57;3.83;;;;;;;6.75;100.00;100035.94;685235;28;723;-63
2023/04/22 00:32:28;;;;;;;6.47;3.88;;;;;;;6.77;100.00;100030.72;686779;28;2003;-64
2023/04/22 00:32:49;;;;;;;6.15;4.00;;;;;;;6.78;100.00;100024.69;686688;28;1016;-62
2023/04/22 00:33:09;;;;;;;6.10;4.00;;;;;;;6.77;100.00;100029.03;686941;28;1223;-63
2023/04/22 00:33:30;;;;;;;6.60;3.95;;;;;;;6.77;100.00;100029.03;687029;28;1702;-63
2023/04/22 00:33:51;;;;;;;6.30;4.00;;;;;;;6.77;100.00;100028.13;689050;28;4321;-62
2023/04/22 00:34:11;;;;;;;6.40;4.00;;;;;;;6.78;100.00;100025.56;689878;28;810;-63
2023/04/22 00:34:32;;;;;;;6.35;4.00;;;;;;;6.79;100.00;100029.03;686432;28;1646;-63
2023/04/22 00:34:52;;;;;;;6.63;4.07;;;;;;;6.79;100.00;100029.88;686038;28;1203;-63
2023/04/22 00:35:13;;;;;;;6.30;3.88;;;;;;;6.79;100.00;100024.69;687757;28;944;-62
2023/04/22 00:35:36;;;;;;;6.53;3.90;;;;;;;6.80;100.00;100034.22;687621;28;1653;-63
2023/04/22 00:35:59;;;;;;;7.18;3.90;;;;;;;6.81;100.00;100029.88;689510;28;813;-62
2023/04/22 00:36:22;;;;;;;7.13;4.25;;;;;;;6.81;100.00;100032.47;688166;28;2034;-63
2023/04/22 00:36:45;;;;;;;6.00;3.85;;;;;;;6.79;100.00;100022.09;690537;28;802;-63
2023/04/22 00:37:06;;;;;;;6.20;4.13;;;;;;;6.78;100.00;100030.78;691273;28;4564;-63
2023/04/22 00:37:27;;;;;;;7.03;3.75;;;;;;;6.77;100.00;100033.34;690383;28;1718;-63
2023/04/22 00:37:47;;;;;;;6.68;3.83;;;;;;;6.77;100.00;100033.34;688895;28;839;-62
2023/04/22 00:38:08;;;;;;;6.33;3.67;;;;;;;6.78;100.00;100030.78;689490;28;1252;-62
2023/04/22 00:38:28;;;;;;;6.30;4.00;;;;;;;6.78;100.00;100035.06;689561;28;1392;-62
2023/04/22 00:38:50;;;;;;;6.57;3.97;;;;;;;6.78;100.00;100029.88;690095;28;1199;-63
2023/04/22 00:39:11;;;;;;;6.00;3.83;;;;;;;6.79;100.00;100040.28;690219;28;5608;-63
2023/04/22 00:39:31;;;;;;;6.07;3.97;;;;;;;6.79;100.00;100031.63;690552;28;1140;-62
2023/04/22 00:39:52;;;;;;;6.05;3.78;;;;;;;6.78;100.00;100030.78;687979;28;4376;-62
2023/04/22 00:40:12;;;;;;;6.10;3.83;;;;;;;6.79;100.00;100036.81;688360;28;1141;-62
2023/04/22 00:40:33;;;;;;;6.35;4.15;;;;;;;6.78;100.00;100030.78;687762;28;1827;-62
2023/04/22 00:40:53;;;;;;;6.00;3.80;;;;;;;6.78;100.00;100029.88;688470;28;1225;-63
2023/04/22 00:41:13;;;;;;;5.93;3.90;;;;;;;6.76;100.00;100029.03;689022;28;893;-63
2023/04/22 00:41:34;;;;;;;6.30;4.10;;;;;;;6.75;100.00;100028.16;688174;28;1543;-63
2023/04/22 00:41:55;;;;;;;6.30;3.83;;;;;;;6.76;100.00;100026.44;690994;28;1429;-63
2023/04/22 00:42:18;;;;;;;5.72;3.88;;;;;;;6.77;100.00;100034.22;690702;28;770;-63
2023/04/22 00:42:44;;;;;;;6.03;3.90;;;;;;;6.77;100.00;100034.22;690305;28;743;-63
2023/04/22 00:43:07;;;;;;;6.72;4.13;;;;;;;6.78;100.00;100024.69;686813;28;4337;-63
2023/04/22 00:43:27;;;;;;;6.40;4.00;;;;;;;6.78;100.00;100027.28;687155;28;1598;-63
2023/04/22 00:43:49;;;;;;;6.47;3.90;;;;;;;6.77;100.00;100023.81;686607;28;1051;-63
2023/04/22 00:44:10;;;;;;;6.20;4.22;;;;;;;6.78;100.00;100020.38;686549;28;1251;-62
2023/04/22 00:44:31;;;;;;;6.05;3.90;;;;;;;6.80;100.00;100029.03;685707;28;1630;-63
2023/04/22 00:44:52;;;;;;;5.57;3.70;;;;;;;6.80;100.00;100023.81;687818;28;3379;-63
2023/04/22 00:45:16;;;;;;;6.60;3.80;;;;;;;6.79;100.00;100022.09;688548;28;1432;-63
2023/04/22 00:45:38;;;;;;;6.25;3.97;;;;;;;6.82;100.00;100026.41;688275;28;1666;-62
2023/04/22 00:45:59;;;;;;;6.72;4.10;;;;;;;6.80;100.00;100025.56;687368;28;4540;-63
2023/04/22 00:46:20;;;;;;;6.95;4.00;;;;;;;6.79;100.00;100011.69;687283;28;1687;-62
2023/04/22 00:46:40;;;;;;;5.13;3.60;;;;;;;6.79;100.00;100027.28;687201;28;1197;-63
2023/04/22 00:47:01;;;;;;;6.10;3.90;;;;;;;6.79;100.00;100026.44;687072;28;1408;-63
2023/04/22 00:47:25;;;;;;;6.13;4.20;;;;;;;6.79;100.00;100029.03;686180;28;1505;-63
2023/04/22 00:47:46;;;;;;;5.88;3.75;;;;;;;6.78;100.00;100020.38;684664;28;1219;-63
2023/04/22 00:48:08;;;;;;;6.55;4.25;;;;;;;6.78;100.00;100024.69;684483;28;1303;-63
2023/04/22 00:48:28;;;;;;;6.97;4.35;;;;;;;6.78;100.00;100019.50;688002;28;1708;-62
2023/04/22 00:48:49;;;;;;;5.83;3.67;;;;;;;6.79;100.00;100027.28;689164;28;4251;-62
2023/04/22 00:49:10;;;;;;;5.90;3.60;;;;;;;6.79;100.00;100024.69;687445;28;750;-62
2023/04/22 00:49:31;;;;;;;6.00;3.80;;;;;;;6.78;100.00;100024.69;687526;28;1614;-62
2023/04/22 00:49:52;;;;;;;6.22;3.70;;;;;;;6.77;100.00;100028.13;687590;28;1063;-62
2023/04/22 00:50:14;;;;;;;6.20;4.05;;;;;;;6.75;100.00;100025.53;686931;28;1321;-62
2023/04/22 00:50:34;;;;;;;6.22;3.92;;;;;;;6.75;100.00;100029.88;688877;28;1763;-63
2023/04/22 00:50:55;;;;;;;7.15;4.00;;;;;;;6.74;100.00;100021.25;690004;28;1234;-62
2023/04/22 00:51:15;;;;;;;6.03;4.00;;;;;;;6.75;100.00;100017.75;690273;28;1604;-62
2023/04/22 00:51:36;;;;;;;6.18;4.03;;;;;;;6.78;100.00;100025.56;688758;28;1610;-63
2023/04/22 00:51:56;;;;;;;6.10;4.10;;;;;;;6.78;100.00;100022.97;689050;28;4272;-62
2023/04/22 00:52:17;;;;;;;6.72;4.10;;;;;;;6.77;100.00;100026.44;689986;28;951;-62
2023/04/22 00:52:37;;;;;;;6.70;3.90;;;;;;;6.80;100.00;100025.56;686257;28;1208;-62
2023/04/22 00:52:58;;;;;;;6.35;3.97;;;;;;;6.81;100.00;100025.56;686264;28;917;-63
2023/04/22 00:53:18;;;;;;;5.80;3.80;;;;;;;6.80;100.00;100023.81;683094;28;1460;-63
2023/04/22 00:53:39;;;;;;;6.05;3.90;;;;;;;6.80;100.00;100023.81;683304;28;834;-62
2023/04/22 00:54:03;;;;;;;6.23;4.00;;;;;;;6.81;100.00;100027.28;685168;28;754;-63
2023/04/22 00:54:24;;;;;;;5.78;4.00;;;;;;;6.79;100.00;100024.69;683366;28;1616;-63
2023/04/22 00:54:45;;;;;;;6.50;4.17;;;;;;;6.80;100.00;100022.97;682786;28;1272;-63
2023/04/22 00:55:06;;;;;;;6.60;4.00;;;;;;;6.80;100.00;100031.63;680571;28;4409;-63
2023/04/22 00:55:27;;;;;;;6.90;4.18;;;;;;;6.77;100.00;100023.81;685224;28;1430;-62
2023/04/22 00:55:47;;;;;;;5.95;3.95;;;;;;;6.74;100.00;100022.94;685742;28;1351;-62
2023/04/22 00:56:10;;;;;;;6.50;4.30;;;;;;;6.71;100.00;100025.56;685417;28;857;-62
2023/04/22 00:56:32;;;;;;;5.82;3.72;;;;;;;6.70;100.00;100027.28;684024;28;932;-62
2023/04/22 00:56:54;;;;;;;6.40;3.80;;;;;;;6.71;100.00;100022.97;684713;28;929;-62
2023/04/22 00:57:14;;;;;;;6.60;4.40;;;;;;;6.71;100.00;100022.97;685905;28;798;-62
2023/04/22 00:57:37;;;;;;;6.82;4.07;;;;;;;6.74;100.00;100025.53;686150;28;1535;-62
2023/04/22 00:58:01;;;;;;;5.93;4.00;;;;;;;6.76;100.00;100019.50;687589;28;4647;-63
2023/04/22 00:58:26;;;;;;;6.40;3.90;;;;;;;6.78;100.00;100025.56;687701;28;1599;-62
2023/04/22 00:58:46;;;;;;;5.80;3.85;;;;;;;6.78;100.00;100022.97;689592;28;1178;-61
2023/04/22 00:59:08;;;;;;;5.93;3.90;;;;;;;6.77;100.00;100022.94;689063;28;801;-62
2023/04/22 00:59:29;;;;;;;6.88;4.20;;;;;;;6.82;100.00;100029.88;684676;28;1580;-63
2023/04/22 00:59:49;;;;;;;6.68;3.97;;;;;;;6.82;100.00;100021.22;685063;28;1284;-62
2023/04/22 01:00:10;;;;;;;6.57;3.87;;;;;;;6.84;100.00;100026.41;685675;28;818;-63
2023/04/22 01:00:32;;;;;;;7.28;3.70;;;;;;;6.81;100.00;100030.75;684555;28;1626;-62
2023/04/22 01:00:52;;;;;;;6.10;3.97;;;;;;;6.80;100.00;100018.63;684431;28;4364;-62
2023/04/22 01:01:13;;;;;;;6.57;4.10;;;;;;;6.80;100.00;100023.81;687610;28;1143;-63
2023/04/22 01:01:35;;;;;;;6.63;3.65;;;;;;;6.81;100.00;100022.09;688304;28;1499;-62
2023/04/22 01:01:55;;;;;;;6.65;3.90;;;;;;;6.80;100.00;100020.38;690505;28;999;-62
2023/04/22 01:02:18;;;;;;;6.97;3.83;;;;;;;6.77;100.00;100028.13;690224;28;1129;-62
2023/04/22 01:02:39;;;;;;;6.60;3.60;;;;;;;6.77;100.00;100020.34;690636;28;1151;-63
2023/04/22 01:03:02;;;;;;;5.53;3.70;;;;;;;6.76;100.00;100024.69;686335;28;1052;-63
2023/04/22 01:03:25;;;;;;;5.40;3.70;;;;;;;6.76;100.00;100029.88;686240;28;1490;-62
2023/04/22 01:03:48;;;;;;;5.78;3.88;;;;;;;6.77;100.00;100023.81;685600;28;2243;-63
2023/04/22 01:04:11;;;;;;;6.18;3.95;;;;;;;6.78;100.00;100015.19;687015;28;5266;-63
2023/04/22 01:04:31;;;;;;;5.55;3.80;;;;;;;6.80;100.00;100016.03;687433;28;1728;-62
2023/04/22 01:04:55;;;;;;;6.03;3.60;;;;;;;6.78;100.00;100022.09;690640;28;861;-62
2023/04/22 01:05:16;;;;;;;6.70;4.10;;;;;;;6.80;100.00;100018.63;689148;28;1057;-62
2023/04/22 01:05:38;;;;;;;5.93;3.90;;;;;;;6.79;100.00;100022.09;684632;28;1728;-63
2023/04/22 01:05:58;;;;;;;6.05;3.90;;;;;;;6.77;100.00;100026.44;685567;28;2008;-62
2023/04/22 01:06:19;;;;;;;6.85;3.97;;;;;;;6.77;100.00;100022.94;687602;28;1742;-62
2023/04/22 01:06:42;;;;;;;6.05;3.72;;;;;;;6.75;100.00;100022.09;688350;28;816;-62
2023/04/22 01:07:02;;;;;;;6.22;3.83;;;;;;;6.75;100.00;100014.31;690040;28;4641;-62
2023/04/22 01:07:23;;;;;;;6.63;3.87;;;;;;;6.71;100.00;100021.22;688283;28;1172;-62
2023/04/22 01:07:44;;;;;;;6.05;3.80;;;;;;;6.73;100.00;100018.59;690954;28;1173;-62
2023/04/22 01:08:05;;;;;;;6.50;3.90;;;;;;;6.71;100.00;100018.63;689237;28;928;-63
2023/04/22 01:08:30;;;;;;;6.10;3.72;;;;;;;6.73;100.00;100019.50;685542;28;1811;-63
2023/04/22 01:08:51;;;;;;;5.65;3.85;;;;;;;6.74;100.00;100018.63;684919;28;2008;-62
2023/04/22 01:09:13;;;;;;;5.55;3.70;;;;;;;6.73;100.00;100016.91;687500;28;1127;-63
2023/04/22 01:09:35;;;;;;;6.00;3.88;;;;;;;6.72;100.00;100020.34;686463;28;1503;-63
2023/04/22 01:09:57;;;;;;;6.43;3.83;;;;;;;6.72;100.00;100025.56;687042;28;5016;-63
2023/04/22 01:10:19;;;;;;;5.93;3.70;;;;;;;6.70;100.00;100022.09;691230;28;954;-62
2023/04/22 01:10:41;;;;;;;6.40;4.18;;;;;;;6.73;100.00;100021.22;689421;28;1476;-63
2023/04/22 01:11:02;;;;;;;6.25;3.78;;;;;;;6.73;100.00;100016.91;690806;28;892;-62
2023/04/22 01:11:24;;;;;;;6.22;3.83;;;;;;;6.71;100.00;100018.63;690783;28;1752;-62
2023/04/22 01:11:46;;;;;;;6.07;3.90;;;;;;;6.72;100.00;100022.94;691788;28;825;-63
2023/04/22 01:12:07;;;;;;;6.90;4.20;;;;;;;6.72;100.00;100020.34;689803;28;1254;-63
2023/04/22 01:12:28;;;;;;;6.43;3.78;;;;;;;6.75;100.00;100022.09;690946;28;1544;-63
2023/04/22 01:12:49;;;;;;;6.30;3.83;;;;;;;6.75;100.00;100027.28;691591;28;4490;-62
2023/04/22 01:13:11;;;;;;;7.10;4.07;;;;;;;6.75;100.00;100024.69;691652;28;817;-63
2023/04/22 01:13:32;;;;;;;7.38;4.10;;;;;;;6.71;100.00;100023.81;691784;28;1743;-63
2023/04/22 01:13:53;;;;;;;6.65;4.15;;;;;;;6.69;100.00;100020.34;692789;28;869;-63
2023/04/22 01:14:15;;;;;;;6.38;4.13;;;;;;;6.68;100.00;100023.81;689939;28;912;-63
2023/04/22 01:14:37;;;;;;;6.32;3.85;;;;;;;6.67;100.00;100016.88;689213;28;994;-63
2023/04/22 01:14:58;;;;;;;6.00;3.83;;;;;;;6.68;100.00;100016.03;690046;28;810;-64
2023/04/22 01:15:21;;;;;;;6.03;4.00;;;;;;;6.69;100.00;100020.34;691881;28;958;-64
2023/04/22 01:15:43;;;;;;;6.43;4.05;;;;;;;6.68;100.00;100018.63;687140;28;1345;-63
2023/04/22 01:16:07;;;;;;;5.95;3.95;;;;;;;6.68;100.00;100017.75;689073;28;4401;-63
2023/04/22 01:16:32;;;;;;;5.63;3.47;;;;;;;6.70;100.00;100016.91;690721;28;1499;-63
2023/04/22 01:16:55;;;;;;;6.63;3.90;;;;;;;6.72;100.00;100015.16;690957;28;758;-63
2023/04/22 01:17:18;;;;;;;6.47;3.90;;;;;;;6.71;100.00;100016.00;691718;28;1223;-63
2023/04/22 01:17:38;;;;;;;6.03;3.72;;;;;;;6.72;100.00;100020.34;690242;28;1253;-63
2023/04/22 01:18:00;;;;;;;5.90;3.72;;;;;;;6.68;100.00;100021.22;688326;28;1397;-62
2023/04/22 01:18:22;;;;;;;5.80;3.83;;;;;;;6.69;100.00;100025.56;686223;28;1540;-63
2023/04/22 01:18:42;;;;;;;5.97;3.80;;;;;;;6.70;100.00;100018.63;687470;28;1262;-62
2023/04/22 01:19:04;;;;;;;6.53;3.97;;;;;;;6.71;100.00;100021.22;684450;28;4485;-63
2023/04/22 01:19:25;;;;;;;6.28;3.92;;;;;;;6.71;100.00;100012.56;683157;28;1513;-63
2023/04/22 01:19:47;;;;;;;6.22;3.83;;;;;;;6.71;100.00;100018.63;682962;28;850;-63
2023/04/22 01:20:09;;;;;;;6.28;4.20;;;;;;;6.71;100.00;100016.00;683792;28;1067;-64
2023/04/22 01:20:29;;;;;;;6.97;4.13;;;;;;;6.70;100.00;100014.31;682795;28;1642;-63
2023/04/22 01:20:52;;;;;;;6.90;3.95;;;;;;;6.72;100.00;100020.34;681910;28;1244;-63
2023/04/22 01:21:13;;;;;;;6.55;4.00;;;;;;;6.74;100.00;100020.34;681701;28;1336;-62
2023/04/22 01:21:34;;;;;;;6.40;3.97;;;;;;;6.76;100.00;100021.25;685119;28;1579;-63
2023/04/22 01:21:56;;;;;;;7.20;3.95;;;;;;;6.76;100.00;100016.03;687453;28;4581;-63
2023/04/22 01:22:17;;;;;;;6.40;3.83;;;;;;;6.78;100.00;100016.88;691064;28;1318;-63
2023/04/22 01:22:44;;;;;;;6.07;3.90;;;;;;;6.76;100.00;100021.25;687757;28;916;-63
2023/04/22 01:23:08;;;;;;;5.95;3.90;;;;;;;6.75;100.00;100012.56;687327;28;834;-63
2023/04/22 01:23:29;;;;;;;5.72;3.90;;;;;;;6.76;100.00;100021.25;687391;28;1680;-63
2023/04/22 01:23:50;;;;;;;6.22;3.90;;;;;;;6.76;100.00;100014.28;688733;28;1051;-63
2023/04/22 01:24:11;;;;;;;6.53;3.88;;;;;;;6.75;100.00;100020.34;687781;28;778;-63
2023/04/22 01:24:32;;;;;;;5.70;3.63;;;;;;;6.76;100.00;100026.44;689990;28;1732;-63
2023/04/22 01:24:53;;;;;;;6.63;3.80;;;;;;;6.76;100.00;100022.09;690841;28;4614;-63
2023/04/22 01:25:15;;;;;;;7.05;3.78;;;;;;;6.76;100.00;100016.91;693747;28;1370;-63
2023/04/22 01:25:36;;;;;;;7.10;4.03;;;;;;;6.76;100.00;100016.91;692752;28;1566;-63
2023/04/22 01:25:57;;;;;;;5.80;3.85;;;;;;;6.76;100.00;100022.09;690785;28;1918;-64
2023/04/22 01:26:18;;;;;;;5.65;3.53;;;;;;;6.77;100.00;100020.34;691067;28;950;-63
2023/04/22 01:26:39;;;;;;;6.15;3.70;;;;;;;6.77;100.00;100018.63;688924;28;1290;-63
2023/04/22 01:27:00;;;;;;;6.20;3.65;;;;;;;6.78;100.00;100025.56;689546;28;734;-63
2023/04/22 01:27:21;;;;;;;6.07;3.80;;;;;;;6.79;100.00;100023.81;688759;28;1689;-63
2023/04/22 01:27:43;;;;;;;5.40;3.50;;;;;;;6.79;100.00;100016.88;689302;28;1074;-63
2023/04/22 01:28:03;;;;;;;5.38;3.50;;;;;;;6.77;100.00;100029.03;690287;28;4892;-63
2023/04/22 01:28:24;;;;;;;6.05;3.60;;;;;;;6.75;100.00;100020.34;688314;28;1239;-63
2023/04/22 01:28:45;;;;;;;6.50;3.67;;;;;;;6.79;100.00;100023.81;687612;28;1089;-63
2023/04/22 01:29:06;;;;;;;6.00;3.80;;;;;;;6.79;100.00;100022.09;688930;28;804;-63
2023/04/22 01:29:27;;;;;;;5.57;3.77;;;;;;;6.76;100.00;100022.09;690907;28;1837;-63
2023/04/22 01:29:48;;;;;;;5.60;3.88;;;;;;;6.77;100.00;100029.03;691584;28;900;-63
2023/04/22 01:30:10;;;;;;;5.90;3.80;;;;;;;6.80;100.00;100021.22;691979;28;1413;-63
2023/04/22 01:30:33;;;;;;;5.78;3.80;;;;;;;6.82;100.00;100021.22;693459;28;1473;-63
2023/04/22 01:30:55;;;;;;;6.40;3.80;;;;;;;6.81;100.00;100022.09;690999;28;4594;-62
2023/04/22 01:31:15;;;;;;;5.65;3.75;;;;;;;6.80;100.00;100025.56;690180;28;1247;-62
2023/04/22 01:31:37;;;;;;;8.50;4.10;;;;;;;6.82;100.00;100026.41;690997;28;1451;-63
2023/04/22 01:31:58;;;;;;;5.53;3.80;;;;;;;6.79;100.00;100022.09;691835;28;1524;-63
2023/04/22 01:32:19;;;;;;;5.85;3.80;;;;;;;6.75;100.00;100022.94;690010;28;1482;-63
2023/04/22 01:32:41;;;;;;;6.75;3.88;;;;;;;6.73;100.00;100022.09;688598;28;1247;-63
2023/04/22 01:33:01;;;;;;;6.32;4.20;;;;;;;6.80;100.00;100022.97;688653;28;1668;-63
2023/04/22 01:33:23;;;;;;;6.38;4.10;;;;;;;6.81;100.00;100025.56;685898;28;1611;-63
2023/04/22 01:33:43;;;;;;;6.78;4.03;;;;;;;6.77;100.00;100022.94;685838;28;790;-63
2023/04/22 01:34:05;;;;;;;6.93;4.20;;;;;;;6.76;100.00;100022.09;689107;28;4711;-63
2023/04/22 01:34:25;;;;;;;5.80;3.88;;;;;;;6.75;100.00;100020.34;688912;28;1548;-63
2023/04/22 01:34:46;;;;;;;6.20;3.70;;;;;;;6.76;100.00;100026.44;692253;28;789;-63
2023/04/22 01:35:09;;;;;;;5.72;3.85;;;;;;;6.76;100.00;100022.09;691801;28;1023;-63
2023/04/22 01:35:35;;;;;;;5.60;3.83;;;;;;;6.78;100.00;100020.38;691030;28;1002;-63
2023/04/22 01:35:58;;;;;;;5.93;4.00;;;;;;;6.75;100.00;100020.34;692563;28;866;-63
2023/04/22 01:36:20;;;;;;;5.65;3.65;;;;;;;6.74;100.00;100015.16;692895;28;1017;-63
2023/04/22 01:36:41;;;;;;;6.15;3.80;;;;;;;6.76;100.00;100016.91;694297;28;1021;-63
2023/04/22 01:37:02;;;;;;;5.72;3.80;;;;;;;6.78;100.00;100022.09;691064;28;4424;-63
2023/04/22 01:37:22;;;;;;;6.03;3.80;;;;;;;6.79;100.00;100018.63;691233;28;1685;-64
2023/04/22 01:37:43;;;;;;;5.80;3.70;;;;;;;6.79;100.00;100016.88;689449;28;1681;-63
2023/04/22 01:38:09;;;;;;;5.72;3.67;;;;;;;6.80;100.00;100017.78;691528;28;1191;-63
2023/04/22 01:38:32;;;;;;;6.50;3.67;;;;;;;6.80;100.00;100016.03;691288;28;950;-63
2023/04/22 01:38:53;;;;;;;6.45;4.00;;;;;;;6.81;100.00;100019.47;686626;28;1215;-63
2023/04/22 01:39:14;;;;;;;6.32;4.05;;;;;;;6.81;100.00;100022.97;685736;28;1155;-63
2023/04/22 01:39:38;;;;;;;6.22;3.85;;;;;;;6.83;100.00;100022.97;689021;28;1129;-63
2023/04/22 01:39:59;;;;;;;5.80;3.80;;;;;;;6.84;100.00;100024.69;686580;28;4640;-63
2023/04/22 01:40:21;;;;;;;6.07;3.90;;;;;;;6.85;100.00;100021.22;685849;28;1081;-63
2023/04/22 01:40:42;;;;;;;6.35;4.05;;;;;;;6.84;100.00;100022.09;684284;28;1251;-63
2023/04/22 01:41:03;;;;;;;6.20;3.80;;;;;;;6.80;100.00;100018.63;686524;28;1048;-63
2023/04/22 01:41:25;;;;;;;5.97;4.00;;;;;;;6.81;100.00;100022.97;687503;28;1114;-63
2023/04/22 01:41:46;;;;;;;5.85;3.75;;;;;;;6.82;100.00;100024.69;686453;28;1362;-63
2023/04/22 01:42:09;;;;;;;5.30;3.45;;;;;;;6.82;100.00;100022.06;684984;28;2160;-63